Keene, NH (03431)

2:24 PM EST on February 11, 2016 (GMT -0500)
Court St. | | Change Station
CLOSE
Current Station
Personal Weather Station
Location: Keene, NH
Elevation: 522 ft
Nearby Weather Stations

Elev 522 ft 42.94 °N, 72.29 °W | Updated 10 minutes ago

Overcast
Overcast
22.8 °F
Feels Like 23 °F
N
2.7
Wind Variable Wind from SE

Today
High -- | Low -- °F
--% Chance of Precip.
Yesterday
High -- | Low -- °F
Precip. -- in
Pressure 29.73 in
Visibility 10.0 miles
Clouds Few 2100 ft
Scattered Clouds 3100 ft
Mostly Cloudy 3700 ft
Windchill 23 °F
Dew Point 7 °F
Humidity 51%
Rainfall 0.00 in
Snow Depth Not available.
6:52 AM 5:14 PM
Waxing Crescent, 14% visible
METAR KEEN 111915Z AUTO 29014G22KT 240V310 10SM FEW021 SCT031 BKN037 M07/M18 A2973 RMK AO1
Pressure 29.73 in
Visibility 10.0 miles
Clouds Few 2100 ft
Scattered Clouds 3100 ft
Mostly Cloudy 3700 ft
Windchill 23 °F
Dew Point 7 °F
Humidity 51%
Rainfall 0.00 in
Snow Depth Not available.
6:52 AM 5:14 PM
Waxing Crescent, 14% visible
METAR KEEN 111915Z AUTO 29014G22KT 240V310 10SM FEW021 SCT031 BKN037 M07/M18 A2973 RMK AO1

10-Day Weather Forecast

Almanac

Astronomy

Feb. 11, 2016 Rise Set
Actual Time
Civil Twilight
Nautical Twilight
Astronomical Twilight
Moon
Length of Visible Light
Length of Day
Tomorrow will be .
, % of the Moon is Illuminated

Today's Extremes

State Highs State Lows

Community

WunderPhotos

Upload Photos

1,892,142 photos uploaded!

WunderBlog® & News

Nearby

Air Quality

  Air Quality AQ Index Pollutant
Not available.

Snow Depth

Station Depth Elevation

Earthquake Activity

City Distance Mag. Time & Date
Minimum magnitude displayed is 2.5.

Coastal Water Temperatures

Place Temperature

Stations

Nearby Weather Stations

Station Location Temp. Windchill Dew Point Humidity Wind Precip. Elev Updated Type
                   

Watches & Warnings

There are currently no watches in effect.